Brantford, Canada
Current Conditions -  °F | °C
As of 6:00 AM on Friday 24 Oct 2014 (Local Time) from CYHM Reporting Station
Clear Clear  
Wind Chill: 31°   Ceiling: Unl
Heat Index: 36°   Visibility: 15mi
Dew Point: 34°   Wind: 6mph
Humidity: 93%   Direction: 280°W
Pressure: 30.06"   Gusts: NA
Location:  43.14°N, 80.26°W
Report Text: CYHM 241000Z 28005KT 15SM SKC 02/01 A3006 RMK FROIN SLP184
Loading
Personal Weather Stations






























Interactive Weather Map
Tropical Storm Tracking
New forecast layout! Learn more

10-Day Weather Forecast

Advertisements
Track Severe Weather on mobile